createdAt,value
2019-02-09T00:00:24.117Z,1.03
2019-02-09T00:02:54.509Z,0.93
2019-02-09T00:05:24.721Z,0.63
2019-02-09T00:07:55.356Z,0.80
2019-02-09T00:10:25.914Z,0.70
2019-02-09T00:12:56.302Z,0.80
2019-02-09T00:15:26.447Z,0.97
2019-02-09T00:17:56.930Z,0.87
2019-02-09T00:20:27.120Z,0.70
2019-02-09T00:22:57.488Z,0.70
2019-02-09T00:25:28.152Z,0.80
2019-02-09T00:27:58.376Z,0.90
2019-02-09T00:30:28.559Z,0.80
2019-02-09T00:32:58.778Z,1.07
2019-02-09T00:35:29.031Z,1.00
2019-02-09T00:37:59.240Z,1.23
2019-02-09T00:40:29.996Z,1.13
2019-02-09T00:43:00.288Z,1.40
2019-02-09T00:45:30.857Z,1.10
2019-02-09T00:48:01.125Z,1.40
2019-02-09T00:50:31.322Z,1.20
2019-02-09T00:53:01.868Z,1.87
2019-02-09T00:55:33.548Z,1.30
2019-02-09T00:58:04.190Z,1.67
2019-02-09T01:00:34.488Z,1.37
2019-02-09T01:03:05.689Z,1.27
2019-02-09T01:05:39.088Z,1.23
2019-02-09T01:08:10.429Z,1.47
2019-02-09T01:10:40.896Z,2.43
2019-02-09T01:13:11.607Z,1.30
2019-02-09T01:15:42.125Z,1.53
2019-02-09T01:18:12.410Z,1.20
2019-02-09T01:20:42.596Z,1.97
2019-02-09T01:23:12.741Z,1.30
2019-02-09T01:25:42.931Z,1.43
2019-02-09T01:28:13.464Z,1.50
2019-02-09T01:30:44.207Z,2.00
2019-02-09T01:33:14.513Z,2.20
2019-02-09T01:35:44.686Z,1.33
2019-02-09T01:38:14.917Z,2.00
2019-02-09T01:40:45.423Z,1.50
2019-02-09T01:43:15.803Z,1.60
2019-02-09T01:45:46.613Z,2.13
2019-02-09T01:48:17.164Z,1.50
2019-02-09T01:50:47.719Z,1.80
2019-02-09T01:53:17.951Z,2.30
2019-02-09T01:55:48.187Z,1.63
2019-02-09T01:58:18.384Z,2.37
2019-02-09T02:00:48.627Z,1.80
2019-02-09T02:03:19.528Z,2.83
2019-02-09T02:05:49.701Z,2.17
2019-02-09T02:08:23.726Z,2.77
2019-02-09T02:10:54.287Z,2.00
2019-02-09T02:13:24.872Z,3.03
2019-02-09T02:15:55.130Z,2.63
2019-02-09T02:18:25.337Z,1.80
2019-02-09T02:20:55.591Z,1.67
2019-02-09T02:23:25.800Z,1.97
2019-02-09T02:25:55.995Z,2.50
2019-02-09T02:28:26.886Z,1.93
2019-02-09T02:30:57.119Z,2.47
2019-02-09T02:33:27.428Z,3.60
2019-02-09T02:35:57.958Z,2.37
2019-02-09T02:38:28.499Z,2.33
2019-02-09T02:40:58.686Z,2.43
2019-02-09T02:43:28.891Z,2.60
2019-02-09T02:45:59.492Z,2.67
2019-02-09T02:48:29.734Z,2.47
2019-02-09T02:50:59.960Z,1.90
2019-02-09T02:53:30.537Z,1.90
2019-02-09T02:56:00.720Z,1.73
2019-02-09T02:58:30.981Z,2.70
2019-02-09T03:01:01.202Z,2.43
2019-02-09T03:03:31.555Z,1.93
2019-02-09T03:06:01.719Z,2.80
2019-02-09T03:08:31.967Z,3.00
2019-02-09T03:11:02.528Z,2.53
2019-02-09T03:13:32.880Z,2.63
2019-02-09T03:16:03.378Z,2.73
2019-02-09T03:18:33.996Z,2.47
2019-02-09T03:21:04.285Z,2.10
2019-02-09T03:23:34.542Z,2.50
2019-02-09T03:26:04.749Z,2.00
2019-02-09T03:28:34.977Z,3.03
2019-02-09T03:31:05.175Z,2.13
2019-02-09T03:33:35.706Z,3.37
2019-02-09T03:36:06.205Z,1.93
2019-02-09T03:38:36.486Z,2.30
2019-02-09T03:41:06.860Z,2.50
2019-02-09T03:43:37.002Z,2.63
2019-02-09T03:46:07.164Z,1.60
2019-02-09T03:48:38.114Z,2.43
2019-02-09T03:51:08.724Z,2.23
2019-02-09T03:53:39.268Z,1.73
2019-02-09T03:56:09.813Z,2.10
2019-02-09T03:58:40.043Z,2.20
2019-02-09T04:01:10.307Z,1.63
2019-02-09T04:03:40.957Z,2.43
2019-02-09T04:06:11.178Z,2.17
2019-02-09T04:08:41.389Z,1.87
2019-02-09T04:11:11.540Z,2.03
2019-02-09T04:13:41.724Z,1.20
2019-02-09T04:16:11.887Z,1.60
2019-02-09T04:18:42.110Z,2.03
2019-02-09T04:21:12.607Z,1.70
2019-02-09T04:23:42.806Z,1.70
2019-02-09T04:26:13.036Z,1.90
2019-02-09T04:28:43.216Z,1.50
2019-02-09T04:31:13.706Z,2.03
2019-02-09T04:33:43.931Z,1.37
2019-02-09T04:36:14.262Z,1.70
2019-02-09T04:38:44.494Z,2.90
2019-02-09T04:41:14.995Z,2.10
2019-02-09T04:43:45.313Z,1.73
2019-02-09T04:46:15.492Z,2.10
2019-02-09T04:48:45.739Z,2.47
2019-02-09T04:51:15.906Z,2.10
2019-02-09T04:53:46.544Z,2.30
2019-02-09T04:56:16.727Z,2.60
2019-02-09T04:58:46.937Z,2.53
2019-02-09T05:01:17.451Z,1.70
2019-02-09T05:03:48.078Z,1.90
2019-02-09T05:06:18.257Z,2.20
2019-02-09T05:08:48.490Z,2.13
2019-02-09T05:11:18.663Z,2.00
2019-02-09T05:13:48.948Z,2.03
2019-02-09T05:16:19.126Z,1.93
2019-02-09T05:18:49.368Z,1.60
2019-02-09T05:21:20.359Z,2.23
2019-02-09T05:23:50.673Z,1.53
2019-02-09T05:26:20.918Z,1.13
2019-02-09T05:28:51.502Z,1.43
2019-02-09T05:31:23.440Z,1.40
2019-02-09T05:33:53.584Z,1.40
2019-02-09T05:36:23.754Z,1.30
2019-02-09T05:38:53.927Z,1.40
2019-02-09T05:41:24.154Z,1.27
2019-02-09T05:43:54.364Z,1.10
2019-02-09T05:46:24.573Z,1.93
2019-02-09T05:48:55.129Z,1.33
2019-02-09T05:51:25.328Z,1.80
2019-02-09T05:53:55.590Z,2.97
2019-02-09T05:56:25.852Z,2.33
2019-02-09T05:58:56.076Z,2.10
2019-02-09T06:01:32.205Z,2.07
2019-02-09T06:03:58.539Z,3.50
2019-02-09T06:06:28.728Z,2.17
2019-02-09T06:08:58.935Z,2.53
2019-02-09T06:11:29.509Z,1.77
2019-02-09T06:13:59.741Z,2.00
2019-02-09T06:16:30.805Z,2.20
2019-02-09T06:19:01.243Z,2.33
2019-02-09T06:21:31.368Z,2.83
2019-02-09T06:24:02.027Z,2.87
2019-02-09T06:26:32.209Z,2.30
2019-02-09T06:29:02.500Z,1.90
2019-02-09T06:31:40.260Z,2.27
2019-02-09T06:34:04.635Z,3.60
2019-02-09T06:36:34.853Z,3.03
2019-02-09T06:39:07.709Z,3.17
2019-02-09T06:41:38.290Z,2.90
2019-02-09T06:44:08.521Z,2.10
2019-02-09T06:46:38.682Z,2.60
2019-02-09T06:49:09.001Z,2.70
2019-02-09T06:51:39.391Z,2.93
2019-02-09T06:54:09.625Z,1.97
2019-02-09T06:56:40.133Z,2.23
2019-02-09T06:59:10.786Z,2.67
2019-02-09T07:01:48.335Z,2.17
2019-02-09T07:04:12.981Z,2.20
2019-02-09T07:06:43.525Z,2.63
2019-02-09T07:09:13.739Z,3.17
2019-02-09T07:11:43.933Z,1.30
2019-02-09T07:14:14.257Z,2.20
2019-02-09T07:16:44.432Z,2.00
2019-02-09T07:19:14.665Z,1.50
2019-02-09T07:21:45.161Z,2.87
2019-02-09T07:24:15.345Z,2.27
2019-02-09T07:26:45.629Z,3.07
2019-02-09T07:29:15.873Z,2.37
2019-02-09T07:31:46.403Z,2.63
2019-02-09T07:34:16.626Z,3.47
2019-02-09T07:36:46.844Z,2.70
2019-02-09T07:39:17.069Z,2.87
2019-02-09T07:41:47.823Z,3.27
2019-02-09T07:44:19.250Z,2.60
2019-02-09T07:46:49.528Z,2.30
2019-02-09T07:49:20.210Z,3.40
2019-02-09T07:51:50.392Z,2.73
2019-02-09T07:54:20.663Z,2.43
2019-02-09T07:56:51.182Z,2.43
2019-02-09T07:59:21.782Z,2.50
2019-02-09T08:01:51.988Z,2.33
2019-02-09T08:04:22.295Z,2.70
2019-02-09T08:06:52.512Z,2.60
2019-02-09T08:09:22.722Z,2.57
2019-02-09T08:11:53.437Z,2.87
2019-02-09T08:14:24.073Z,2.93
2019-02-09T08:16:54.631Z,3.40
2019-02-09T08:19:25.301Z,3.47
2019-02-09T08:21:55.993Z,3.17
2019-02-09T08:24:26.247Z,3.27
2019-02-09T08:26:56.457Z,3.43
2019-02-09T08:29:26.686Z,3.70
2019-02-09T08:31:57.441Z,2.90
2019-02-09T08:34:27.651Z,3.77
2019-02-09T08:36:57.882Z,3.53
2019-02-09T08:39:28.199Z,3.10
2019-02-09T08:41:58.381Z,2.80
2019-02-09T08:44:28.997Z,2.73
2019-02-09T08:46:59.247Z,2.70
2019-02-09T08:49:29.517Z,3.30
2019-02-09T08:52:00.091Z,3.40
2019-02-09T08:54:30.745Z,3.60
2019-02-09T08:57:01.008Z,2.70
2019-02-09T08:59:32.313Z,2.63
2019-02-09T09:02:02.671Z,3.00
2019-02-09T09:04:33.320Z,2.00
2019-02-09T09:07:03.750Z,2.40
2019-02-09T09:09:34.135Z,3.10
2019-02-09T09:12:04.852Z,2.30
2019-02-09T09:14:35.572Z,2.67
2019-02-09T09:17:06.213Z,3.23
2019-02-09T09:19:36.526Z,2.87
2019-02-09T09:22:07.202Z,2.63
2019-02-09T09:24:37.792Z,2.47
2019-02-09T09:27:08.044Z,3.07
2019-02-09T09:29:38.247Z,2.47
2019-02-09T09:32:08.431Z,2.57
2019-02-09T09:34:38.674Z,2.63
2019-02-09T09:37:08.887Z,2.53
2019-02-09T09:39:39.508Z,3.50
2019-02-09T09:42:09.724Z,2.40
2019-02-09T09:44:39.940Z,2.20
2019-02-09T09:47:10.149Z,2.73
2019-02-09T09:49:40.372Z,3.37
2019-02-09T09:52:10.849Z,2.40
2019-02-09T09:54:41.755Z,2.57
2019-02-09T09:57:11.990Z,3.10
2019-02-09T09:59:42.244Z,3.13
2019-02-09T10:02:12.458Z,2.73
2019-02-09T10:04:43.096Z,3.20
2019-02-09T10:07:13.330Z,2.73
2019-02-09T10:09:43.897Z,2.67
2019-02-09T10:12:14.122Z,2.70
2019-02-09T10:14:44.336Z,2.40
2019-02-09T10:17:14.713Z,2.40
2019-02-09T10:19:44.978Z,3.10
2019-02-09T10:22:15.630Z,3.07
2019-02-09T10:24:45.840Z,2.33
2019-02-09T10:27:16.395Z,2.00
2019-02-09T10:29:46.600Z,2.27
2019-02-09T10:32:16.850Z,2.93
2019-02-09T10:34:47.535Z,2.10
2019-02-09T10:37:17.838Z,2.77
2019-02-09T10:39:48.244Z,3.00
2019-02-09T10:42:18.474Z,2.50
2019-02-09T10:44:49.581Z,2.63
2019-02-09T10:47:20.379Z,2.43
2019-02-09T10:49:50.575Z,3.27
2019-02-09T10:52:20.793Z,3.80
2019-02-09T10:54:51.017Z,2.47
2019-02-09T10:57:21.864Z,2.87
2019-02-09T10:59:52.233Z,3.10
2019-02-09T11:02:22.808Z,2.30
2019-02-09T11:04:54.089Z,2.63
2019-02-09T11:07:24.297Z,2.63
2019-02-09T11:09:54.506Z,3.23
2019-02-09T11:12:24.849Z,4.27
2019-02-09T11:14:55.110Z,3.80
2019-02-09T11:17:25.308Z,2.57
2019-02-09T11:19:55.618Z,2.57
2019-02-09T11:22:26.162Z,3.00
2019-02-09T11:24:56.641Z,3.20
2019-02-09T11:27:26.878Z,3.00
2019-02-09T11:29:58.234Z,3.97
2019-02-09T11:32:28.485Z,2.77
2019-02-09T11:34:59.074Z,3.53
2019-02-09T11:37:29.320Z,3.37
2019-02-09T11:39:59.588Z,3.87
2019-02-09T11:42:29.736Z,3.30
2019-02-09T11:45:00.148Z,2.73
2019-02-09T11:47:30.853Z,3.10
2019-02-09T11:50:01.573Z,3.03
2019-02-09T11:52:32.170Z,3.93
2019-02-09T11:55:02.473Z,3.53
2019-02-09T11:57:32.977Z,2.37
2019-02-09T12:00:04.282Z,3.23
2019-02-09T12:02:34.510Z,3.07
2019-02-09T12:05:05.340Z,2.87
2019-02-09T12:07:35.574Z,2.70
2019-02-09T12:10:06.926Z,2.40
2019-02-09T12:12:37.138Z,2.50
2019-02-09T12:15:10.506Z,2.27
2019-02-09T12:17:40.668Z,2.43
2019-02-09T12:20:13.348Z,3.77
2019-02-09T12:22:43.684Z,2.87
2019-02-09T12:25:17.128Z,3.67
2019-02-09T12:27:47.536Z,2.47
2019-02-09T12:30:21.160Z,2.70
2019-02-09T12:32:51.301Z,3.00
2019-02-09T12:35:22.718Z,2.77
2019-02-09T12:37:53.688Z,3.80
2019-02-09T12:40:26.439Z,2.90
2019-02-09T12:42:56.781Z,3.20
2019-02-09T12:45:27.705Z,2.70
2019-02-09T12:47:57.978Z,3.20
2019-02-09T12:50:28.780Z,2.93
2019-02-09T12:52:58.968Z,3.27
2019-02-09T12:55:29.562Z,3.43
2019-02-09T12:57:59.793Z,3.57
2019-02-09T13:00:31.901Z,2.77
2019-02-09T13:03:12.518Z,3.80
2019-02-09T13:05:43.047Z,3.17
2019-02-09T13:08:13.552Z,2.53
2019-02-09T13:10:44.059Z,2.73
2019-02-09T13:13:14.238Z,3.20
2019-02-09T13:15:44.503Z,3.20
2019-02-09T13:18:14.619Z,2.90
2019-02-09T13:20:44.822Z,2.97
2019-02-09T13:23:15.022Z,3.20
2019-02-09T13:25:45.616Z,3.10
2019-02-09T13:28:16.602Z,2.30
2019-02-09T13:30:46.812Z,2.97
2019-02-09T13:33:17.040Z,4.13
2019-02-09T13:35:47.945Z,3.50
2019-02-09T13:38:18.162Z,3.03
2019-02-09T13:40:48.403Z,3.57
2019-02-09T13:43:19.086Z,2.80
2019-02-09T13:45:51.563Z,4.43
2019-02-09T13:48:21.677Z,3.10
2019-02-09T13:50:51.984Z,2.97
2019-02-09T13:53:22.275Z,2.77
2019-02-09T13:55:52.526Z,3.40
2019-02-09T13:58:23.150Z,3.87
2019-02-09T14:00:53.481Z,2.37
2019-02-09T14:03:23.880Z,3.50
2019-02-09T14:05:54.114Z,3.87
2019-02-09T14:08:24.324Z,3.60
2019-02-09T14:10:55.285Z,3.00
2019-02-09T14:13:25.477Z,3.37
2019-02-09T14:15:55.760Z,2.83
2019-02-09T14:18:25.960Z,2.90
2019-02-09T14:20:56.222Z,3.70
2019-02-09T14:23:27.397Z,3.57
2019-02-09T14:25:57.550Z,3.60
2019-02-09T14:28:29.197Z,3.03
2019-02-09T14:30:59.502Z,2.33
2019-02-09T14:33:29.730Z,2.67
2019-02-09T14:35:59.941Z,3.57
2019-02-09T14:38:30.538Z,3.27
2019-02-09T14:41:01.884Z,4.03
2019-02-09T14:43:32.489Z,3.17
2019-02-09T14:46:02.795Z,2.67
2019-02-09T14:48:33.004Z,4.03
2019-02-09T14:51:03.295Z,3.63
2019-02-09T14:53:33.510Z,3.20
2019-02-09T14:56:04.123Z,2.97
2019-02-09T14:58:34.333Z,2.37
2019-02-09T15:01:04.735Z,2.40
2019-02-09T15:03:35.325Z,2.60
2019-02-09T15:06:05.786Z,2.07
2019-02-09T15:08:37.375Z,2.60
2019-02-09T15:11:08.697Z,3.10
2019-02-09T15:13:39.255Z,3.27
2019-02-09T15:16:36.559Z,2.67
2019-02-09T15:19:07.055Z,2.67
2019-02-09T15:21:37.283Z,2.57
2019-02-09T15:24:07.483Z,2.63
2019-02-09T15:26:37.807Z,2.63
2019-02-09T15:29:08.001Z,2.87
2019-02-09T15:31:38.510Z,2.50
2019-02-09T15:34:10.517Z,2.80
2019-02-09T15:36:40.873Z,2.27
2019-02-09T15:39:12.134Z,2.83
2019-02-09T15:41:42.423Z,2.57
2019-02-09T15:44:12.708Z,2.40
2019-02-09T15:46:43.383Z,3.27
2019-02-09T15:49:13.697Z,2.90
2019-02-09T15:51:44.009Z,2.97
2019-02-09T15:54:14.461Z,2.63
2019-02-09T15:56:44.720Z,2.23
2019-02-09T15:59:15.642Z,2.17
2019-02-09T16:01:46.368Z,2.47
2019-02-09T16:04:18.011Z,2.87
2019-02-09T16:06:48.635Z,4.17
2019-02-09T16:09:18.832Z,3.07
2019-02-09T16:11:49.134Z,3.97
2019-02-09T16:14:19.331Z,3.60
2019-02-09T16:16:49.631Z,4.40
2019-02-09T16:19:20.281Z,4.67
2019-02-09T16:21:50.511Z,4.47
2019-02-09T16:24:21.431Z,4.27
2019-02-09T16:26:51.675Z,4.37
2019-02-09T16:29:21.913Z,4.87
2019-02-09T16:31:52.189Z,3.97
2019-02-09T16:34:25.442Z,4.07
2019-02-09T16:36:55.484Z,3.33
2019-02-09T16:39:25.678Z,3.50
2019-02-09T16:41:55.926Z,5.90
2019-02-09T16:44:26.197Z,4.00
2019-02-09T16:46:57.264Z,3.07
2019-02-09T16:49:27.530Z,3.03
2019-02-09T16:51:57.884Z,2.77
2019-02-09T16:54:28.085Z,3.30
2019-02-09T16:56:58.339Z,3.67
2019-02-09T16:59:28.587Z,3.17
2019-02-09T17:01:58.849Z,4.30
2019-02-09T17:04:33.311Z,4.03
2019-02-09T17:07:01.299Z,2.90
2019-02-09T17:09:31.710Z,3.37
2019-02-09T17:12:02.290Z,3.60
2019-02-09T17:14:32.626Z,3.13
2019-02-09T17:17:03.313Z,3.97
2019-02-09T17:19:34.015Z,2.93
2019-02-09T17:22:04.837Z,3.47
2019-02-09T17:24:35.554Z,3.37
2019-02-09T17:27:06.118Z,3.73
2019-02-09T17:29:36.381Z,3.30
2019-02-09T17:32:06.613Z,3.10
2019-02-09T17:34:40.897Z,3.80
2019-02-09T17:37:09.008Z,3.60
2019-02-09T17:39:39.265Z,3.00
2019-02-09T17:42:09.833Z,3.87
2019-02-09T17:44:40.797Z,3.67
2019-02-09T17:47:11.705Z,3.00
2019-02-09T17:49:41.895Z,3.50
2019-02-09T17:52:12.114Z,5.00
2019-02-09T17:54:42.307Z,3.00
2019-02-09T17:57:12.601Z,3.80
2019-02-09T17:59:43.117Z,3.90
2019-02-09T18:02:14.229Z,3.73
2019-02-09T18:04:48.585Z,3.43
2019-02-09T18:07:16.533Z,3.17
2019-02-09T18:09:47.485Z,2.90
2019-02-09T18:12:17.721Z,3.33
2019-02-09T18:14:47.931Z,2.90
2019-02-09T18:17:18.150Z,2.70
2019-02-09T18:19:48.502Z,4.67
2019-02-09T18:22:18.708Z,3.67
2019-02-09T18:24:48.960Z,2.77
2019-02-09T18:27:19.301Z,4.57
2019-02-09T18:29:49.495Z,3.73
2019-02-09T18:32:19.828Z,3.43
2019-02-09T18:34:55.951Z,3.70
2019-02-09T18:37:21.989Z,2.87
2019-02-09T18:39:52.831Z,3.37
2019-02-09T18:42:23.256Z,4.07
2019-02-09T18:44:53.884Z,4.13
2019-02-09T18:47:24.616Z,3.87
2019-02-09T18:49:54.826Z,4.03
2019-02-09T18:52:25.132Z,3.80
2019-02-09T18:54:55.731Z,3.20
2019-02-09T18:57:26.003Z,3.43
2019-02-09T18:59:56.292Z,4.17
2019-02-09T19:02:26.606Z,3.20
2019-02-09T19:05:04.210Z,3.50
2019-02-09T19:07:29.605Z,2.70
2019-02-09T19:09:59.929Z,3.40
2019-02-09T19:12:30.166Z,3.60
2019-02-09T19:15:00.749Z,3.40
2019-02-09T19:17:31.154Z,3.30
2019-02-09T19:20:01.410Z,3.20
2019-02-09T19:22:31.630Z,3.07
2019-02-09T19:25:02.264Z,4.67
2019-02-09T19:27:32.848Z,3.20
2019-02-09T19:30:03.021Z,3.40
2019-02-09T19:32:33.388Z,3.70
2019-02-09T19:35:03.700Z,3.40
2019-02-09T19:37:33.992Z,3.73
2019-02-09T19:40:05.565Z,3.77
2019-02-09T19:42:36.649Z,4.10
2019-02-09T19:45:10.110Z,3.10
2019-02-09T19:47:40.363Z,3.30
2019-02-09T19:50:11.830Z,3.30
2019-02-09T19:52:42.140Z,3.70
2019-02-09T19:55:15.613Z,3.93
2019-02-09T19:57:46.280Z,3.57
2019-02-09T20:00:25.025Z,3.53
2019-02-09T20:02:55.968Z,3.27
2019-02-09T20:05:26.170Z,3.13
2019-02-09T20:07:56.763Z,3.23
2019-02-09T20:10:32.561Z,4.00
2019-02-09T20:13:02.963Z,3.10
2019-02-09T20:15:33.353Z,4.23
2019-02-09T20:18:03.989Z,2.97
2019-02-09T20:20:34.694Z,3.10
2019-02-09T20:23:05.685Z,4.07
2019-02-09T20:25:37.079Z,3.53
2019-02-09T20:28:07.657Z,3.83
2019-02-09T20:30:38.268Z,3.80
2019-02-09T20:33:08.787Z,4.63
2019-02-09T20:35:39.003Z,3.43
2019-02-09T20:38:10.295Z,3.33
2019-02-09T20:40:43.388Z,3.63
2019-02-09T20:43:15.541Z,2.93
2019-02-09T20:45:45.821Z,3.90
2019-02-09T20:48:16.436Z,4.60
2019-02-09T20:50:46.890Z,3.40
2019-02-09T20:53:17.113Z,3.77
2019-02-09T20:55:48.409Z,3.57
2019-02-09T20:58:19.236Z,3.57
2019-02-09T21:00:49.494Z,3.23
2019-02-09T21:03:19.720Z,3.77
2019-02-09T21:05:50.227Z,2.80
2019-02-09T21:08:20.463Z,3.13
2019-02-09T21:10:50.732Z,3.27
2019-02-09T21:13:20.955Z,3.70
2019-02-09T21:15:51.528Z,3.37
2019-02-09T21:18:21.764Z,3.47
2019-02-09T21:20:55.974Z,3.40
2019-02-09T21:23:26.200Z,2.70
2019-02-09T21:25:56.856Z,3.37
2019-02-09T21:28:27.101Z,3.43
2019-02-09T21:30:57.271Z,2.87
2019-02-09T21:33:27.527Z,3.00
2019-02-09T21:35:57.716Z,3.40
2019-02-09T21:38:27.927Z,3.20
2019-02-09T21:40:58.151Z,2.63
2019-02-09T21:43:28.416Z,2.47
2019-02-09T21:45:58.629Z,2.50
2019-02-09T21:48:30.138Z,2.40
2019-02-09T21:51:00.390Z,2.87
2019-02-09T21:53:30.669Z,3.43
2019-02-09T21:56:01.272Z,2.73
2019-02-09T21:58:31.695Z,3.53
2019-02-09T22:01:01.934Z,3.73
2019-02-09T22:03:33.302Z,2.83
2019-02-09T22:06:03.911Z,3.07
2019-02-09T22:08:34.558Z,4.20
2019-02-09T22:11:05.377Z,3.37
2019-02-09T22:13:35.655Z,3.87
2019-02-09T22:16:06.574Z,3.50
2019-02-09T22:18:36.893Z,2.87
2019-02-09T22:21:07.791Z,3.03
2019-02-09T22:23:38.045Z,3.00
2019-02-09T22:26:13.110Z,2.60
2019-02-09T22:28:40.620Z,3.47
2019-02-09T22:31:11.227Z,2.83
2019-02-09T22:33:41.854Z,3.27
2019-02-09T22:36:12.041Z,2.73
2019-02-09T22:38:43.151Z,2.60
2019-02-09T22:41:17.441Z,2.70
2019-02-09T22:43:47.783Z,3.23
2019-02-09T22:46:18.039Z,2.90
2019-02-09T22:48:48.701Z,3.20
2019-02-09T22:51:18.889Z,3.10
2019-02-09T22:53:49.490Z,3.60
2019-02-09T22:56:20.128Z,4.57
2019-02-09T22:58:50.383Z,3.10
2019-02-09T23:01:44.139Z,3.30
2019-02-09T23:04:40.893Z,3.10
2019-02-09T23:07:14.129Z,3.57
2019-02-09T23:09:44.389Z,3.47
2019-02-09T23:12:14.590Z,2.80
2019-02-09T23:14:45.202Z,3.10
2019-02-09T23:17:15.395Z,3.50
2019-02-09T23:19:45.594Z,3.80
2019-02-09T23:22:16.151Z,3.33
2019-02-09T23:24:46.443Z,2.93
2019-02-09T23:27:16.627Z,3.50
2019-02-09T23:29:46.815Z,3.50
2019-02-09T23:32:17.348Z,3.30
2019-02-09T23:34:47.598Z,2.63
2019-02-09T23:37:18.111Z,3.07
2019-02-09T23:39:48.352Z,2.90
2019-02-09T23:42:18.606Z,3.80
2019-02-09T23:44:49.166Z,3.13
2019-02-09T23:47:19.441Z,3.60
2019-02-09T23:49:49.661Z,3.53
2019-02-09T23:52:19.835Z,3.90
2019-02-09T23:54:50.436Z,3.53
2019-02-09T23:57:20.628Z,4.10
2019-02-09T23:59:50.888Z,3.23
